Time;durP1;ratioP1;P1;durP2;ratioP2;P2;SDS_P1;SDS_P2;PMS_P1;PMS_P2;Temp;Humidity;BMP_temperature;BMP_pressure;BME280_temperature;BME280_humidity;BME280_pressure;Samples;Min_cycle;Max_cycle;Signal;HPM_P1;HPM_P2
2021/03/30 00:00:43;;;;;;;15.20;8.30;;;;;;;6.56;53.67;101357.47;5046389;28;20148;-23
2021/03/30 00:03:09;;;;;;;12.65;7.80;;;;;;;6.29;54.81;101354.06;5046265;28;20037;-23
2021/03/30 00:05:34;;;;;;;15.95;8.90;;;;;;;6.42;54.51;101353.66;5028487;28;20028;-23
2021/03/30 00:08:00;;;;;;;13.77;8.07;;;;;;;7.13;52.25;101360.28;5028463;28;20040;-23
2021/03/30 00:10:30;;;;;;;14.57;8.05;;;;;;;6.97;51.84;101347.00;5028878;28;20095;-23
2021/03/30 00:12:55;;;;;;;16.40;8.18;;;;;;;6.75;52.72;101361.72;5049905;28;20068;-22
2021/03/30 00:15:20;;;;;;;11.70;7.13;;;;;;;7.19;53.05;101359.63;5049990;28;20083;-23
2021/03/30 00:17:46;;;;;;;14.90;6.85;;;;;;;7.70;51.38;101363.91;5049530;28;20029;-23
2021/03/30 00:20:13;;;;;;;14.10;7.28;;;;;;;7.34;51.57;101327.13;5049762;28;20052;-22
2021/03/30 00:22:39;;;;;;;12.88;6.97;;;;;;;7.74;51.72;101358.09;5049726;28;20032;-23
2021/03/30 00:25:06;;;;;;;9.98;5.43;;;;;;;6.94;51.01;101364.06;5049799;28;20028;-22
2021/03/30 00:27:31;;;;;;;10.02;5.13;;;;;;;6.40;53.02;101361.75;5049595;28;20472;-20
2021/03/30 00:29:57;;;;;;;9.85;5.03;;;;;;;6.78;52.58;101351.63;5049968;28;20150;-22
2021/03/30 00:32:22;;;;;;;10.85;5.13;;;;;;;7.41;50.76;101357.28;5049854;28;20107;-22
2021/03/30 00:34:48;;;;;;;20.48;8.77;;;;;;;6.54;52.49;101354.16;5031797;28;20041;-23
2021/03/30 00:37:13;;;;;;;14.80;7.22;;;;;;;6.94;51.79;101349.97;5049496;28;20488;-22
2021/03/30 00:39:39;;;;;;;15.40;6.57;;;;;;;7.38;50.82;101349.69;5049050;28;20493;-23
2021/03/30 00:42:05;;;;;;;13.23;6.82;;;;;;;7.26;50.66;101343.06;5049711;28;20634;-23
2021/03/30 00:44:31;;;;;;;12.25;7.00;;;;;;;6.86;52.78;101342.00;5049331;28;20028;-23
2021/03/30 00:46:56;;;;;;;16.02;7.85;;;;;;;6.72;53.01;101335.50;5049166;28;20098;-23
2021/03/30 00:49:22;;;;;;;16.10;9.50;;;;;;;6.40;54.58;101337.91;5031175;28;20057;-23
2021/03/30 00:51:48;;;;;;;21.88;11.15;;;;;;;6.12;55.21;101339.09;5048881;28;20111;-23
2021/03/30 00:54:17;;;;;;;17.67;9.82;;;;;;;6.22;54.45;101340.63;5031910;28;20554;-23
2021/03/30 00:56:42;;;;;;;16.15;9.55;;;;;;;6.59;52.94;101334.16;5049149;28;20040;-22
2021/03/30 00:59:08;;;;;;;17.13;9.65;;;;;;;6.78;51.87;101335.72;5031196;28;20021;-23
2021/03/30 01:01:34;;;;;;;12.23;7.45;;;;;;;6.67;52.12;101348.44;5031093;28;20040;-23
2021/03/30 01:04:00;;;;;;;11.57;6.78;;;;;;;6.67;50.37;101332.53;5031213;28;20500;-23
2021/03/30 01:06:25;;;;;;;12.80;6.82;;;;;;;6.82;50.71;101337.03;5048961;28;20082;-23
2021/03/30 01:09:03;;;;;;;15.65;7.15;;;;;;;5.78;53.74;101353.97;5030842;28;20479;-23
2021/03/30 01:11:42;;;;;;;17.13;7.35;;;;;;;4.92;56.61;101340.50;5048851;28;20029;-23
2021/03/30 01:14:10;;;;;;;15.38;6.63;;;;;;;5.10;56.73;101357.22;5048706;28;20521;-22
2021/03/30 01:16:39;;;;;;;;;;;;;;;4.88;57.66;101360.31;5049250;28;20056;-23
2021/03/30 01:19:29;;;;;;;13.40;5.82;;;;;;;5.44;54.78;101330.06;5048920;28;19958;-23
2021/03/30 01:22:03;;;;;;;10.98;5.30;;;;;;;5.60;55.54;101366.41;5048725;28;20102;-23
2021/03/30 01:24:31;;;;;;;10.52;5.55;;;;;;;4.95;58.36;101369.31;5048629;28;20106;-23
2021/03/30 01:27:06;;;;;;;9.38;5.13;;;;;;;4.51;60.18;101369.16;5030793;28;20044;-23
2021/03/30 01:29:53;;;;;;;9.48;4.95;;;;;;;4.54;60.24;101369.69;5048202;28;20032;-22
2021/03/30 01:32:30;;;;;;;12.88;5.35;;;;;;;4.58;60.34;101370.25;5048158;28;20133;-23
2021/03/30 01:34:56;;;;;;;12.10;5.95;;;;;;;4.62;59.96;101366.31;5048377;28;20032;-23
2021/03/30 01:37:22;;;;;;;14.18;6.65;;;;;;;4.42;60.18;101358.47;5048678;28;20059;-23
2021/03/30 01:39:50;;;;;;;12.45;5.53;;;;;;;4.75;59.18;101352.75;5013872;28;20021;-23
2021/03/30 01:42:18;;;;;;;13.50;5.68;;;;;;;5.28;57.44;101337.88;5047971;28;20444;-23
2021/03/30 01:44:43;;;;;;;10.38;5.35;;;;;;;6.09;55.29;101355.31;5014087;28;20048;-23
2021/03/30 01:47:09;;;;;;;11.73;5.18;;;;;;;5.82;55.40;101355.31;5013867;28;20493;-23
2021/03/30 01:49:35;;;;;;;11.10;5.15;;;;;;;6.42;53.86;101329.81;5029748;28;20523;-23
2021/03/30 01:52:01;;;;;;;9.77;5.53;;;;;;;6.61;52.45;101334.00;5030216;28;20067;-23
2021/03/30 01:54:26;;;;;;;11.40;5.50;;;;;;;6.46;53.18;101351.50;5047909;28;20476;-23
2021/03/30 01:56:53;;;;;;;9.57;5.80;;;;;;;6.11;53.76;101329.50;5013527;28;20067;-23
2021/03/30 01:59:19;;;;;;;10.30;6.38;;;;;;;5.75;54.37;101326.97;5047792;28;20051;-23
2021/03/30 02:01:45;;;;;;;11.55;6.45;;;;;;;5.74;55.17;101349.09;5013378;28;20548;-23
2021/03/30 02:04:10;;;;;;;10.75;5.95;;;;;;;5.52;55.70;101332.78;5013374;28;20059;-23
2021/03/30 02:06:36;;;;;;;12.40;6.35;;;;;;;5.75;55.03;101342.84;5048064;28;20400;-23
2021/03/30 02:09:08;;;;;;;12.82;6.22;;;;;;;5.62;55.69;101349.38;5013485;28;20021;-25
2021/03/30 02:11:43;;;;;;;10.57;5.78;;;;;;;5.45;56.40;101344.94;5013664;28;20108;-23
2021/03/30 02:14:08;;;;;;;12.20;6.55;;;;;;;5.02;57.18;101346.56;5031431;28;20040;-23
2021/03/30 02:16:38;;;;;;;13.30;6.40;;;;;;;5.31;56.55;101338.41;5013495;28;20052;-23
2021/03/30 02:19:18;;;;;;;16.15;7.28;;;;;;;5.33;56.21;101327.66;5030323;28;20025;-23
2021/03/30 02:22:12;;;;;;;13.95;8.23;;;;;;;5.76;55.02;101344.50;5029697;28;20016;-22
2021/03/30 02:24:37;;;;;;;14.55;7.68;;;;;;;5.64;56.06;101339.47;5048019;28;20029;-23
2021/03/30 02:27:05;;;;;;;13.02;6.88;;;;;;;5.77;55.22;101330.28;5013107;28;20024;-23
2021/03/30 02:29:34;;;;;;;12.48;7.15;;;;;;;5.87;54.84;101338.94;5013070;28;20033;-19
2021/03/30 02:31:59;;;;;;;10.05;5.72;;;;;;;6.33;53.29;101347.47;5030068;28;20421;-23
2021/03/30 02:34:27;;;;;;;8.30;4.78;;;;;;;6.37;52.39;101355.94;5012350;28;20565;-23
2021/03/30 02:36:55;;;;;;;10.70;5.07;;;;;;;6.67;51.04;101349.25;5013200;28;20036;-23
2021/03/30 02:39:21;;;;;;;11.50;5.57;;;;;;;6.84;51.69;101350.09;5047233;28;20082;-23
2021/03/30 02:41:47;;;;;;;10.80;5.45;;;;;;;5.92;53.98;101328.69;5046885;28;20036;-23
2021/03/30 02:44:13;;;;;;;10.00;5.60;;;;;;;6.19;54.07;101353.38;5029289;28;20120;-23
2021/03/30 02:46:39;;;;;;;13.07;6.28;;;;;;;5.34;55.54;101356.59;5012779;28;20112;-23
2021/03/30 02:49:05;;;;;;;15.35;7.20;;;;;;;5.78;54.56;101350.47;5012704;28;20049;-23
2021/03/30 02:51:31;;;;;;;13.40;7.30;;;;;;;6.31;53.04;101362.69;5047299;28;20049;-23
2021/03/30 02:53:57;;;;;;;12.55;6.50;;;;;;;6.19;52.88;101348.06;5029332;28;20069;-23
2021/03/30 02:56:23;;;;;;;11.85;6.25;;;;;;;6.04;53.29;101361.06;5012788;28;20111;-23
2021/03/30 02:58:52;;;;;;;12.55;6.22;;;;;;;5.44;54.86;101341.47;5012833;28;20068;-23
2021/03/30 03:01:17;;;;;;;11.93;6.05;;;;;;;5.62;54.03;101354.69;5029256;28;20115;-22
2021/03/30 03:03:43;;;;;;;20.58;6.40;;;;;;;5.82;54.22;101349.16;5028995;28;20115;-23
2021/03/30 03:06:09;;;;;;;10.27;6.28;;;;;;;5.80;53.61;101340.53;5012933;28;20036;-22
2021/03/30 03:08:34;;;;;;;13.63;6.90;;;;;;;5.83;53.91;101356.13;5029013;28;20029;-22
2021/03/30 03:11:00;;;;;;;12.20;6.65;;;;;;;5.77;54.33;101343.53;5029028;28;20036;-22
2021/03/30 03:13:25;;;;;;;12.88;6.95;;;;;;;5.31;54.95;101348.13;5029412;28;20044;-22
2021/03/30 03:15:51;;;;;;;40.58;8.30;;;;;;;5.58;54.17;101341.91;5012776;28;20144;-22
2021/03/30 03:18:17;;;;;;;28.08;8.13;;;;;;;4.72;57.69;101353.88;5028910;28;20029;-21
2021/03/30 03:20:49;;;;;;;27.23;11.90;;;;;;;4.47;58.57;101346.66;5029292;28;20363;-23
2021/03/30 03:23:14;;;;;;;17.52;9.77;;;;;;;4.21;58.78;101331.50;5012854;28;20033;-22
2021/03/30 03:25:40;;;;;;;24.63;8.30;;;;;;;4.66;56.94;101341.25;5012375;28;20382;-22
2021/03/30 03:28:06;;;;;;;17.90;7.53;;;;;;;5.21;55.70;101341.13;5029370;28;20047;-22
2021/03/30 03:30:32;;;;;;;16.30;6.93;;;;;;;5.14;55.15;101321.56;5047142;28;20697;-22
2021/03/30 03:33:13;;;;;;;18.00;8.20;;;;;;;4.92;55.74;101324.66;5047013;28;20733;-23
2021/03/30 03:35:39;;;;;;;17.15;10.57;;;;;;;4.97;56.19;101359.41;5046672;28;20055;-23
2021/03/30 03:38:05;;;;;;;20.90;10.18;;;;;;;5.50;54.74;101326.81;5028887;28;20540;-23
2021/03/30 03:40:34;;;;;;;26.83;12.73;;;;;;;5.40;54.27;101337.47;5046553;28;20058;-23
2021/03/30 03:42:59;;;;;;;30.77;11.98;;;;;;;5.35;54.82;101341.56;5046560;28;20033;-22
2021/03/30 03:45:25;;;;;;;17.88;8.38;;;;;;;4.67;56.09;101353.47;5046939;28;20406;-23
2021/03/30 03:47:50;;;;;;;15.38;7.35;;;;;;;4.93;55.81;101356.22;5032112;28;20037;-23
2021/03/30 03:50:16;;;;;;;14.65;6.95;;;;;;;4.92;56.50;101356.38;5050327;28;20033;-23
2021/03/30 03:52:44;;;;;;;11.70;6.57;;;;;;;4.95;55.89;101354.28;5030975;28;20029;-23
2021/03/30 03:55:10;;;;;;;11.83;6.30;;;;;;;4.77;56.55;101354.25;5016642;28;20036;-22
2021/03/30 03:57:55;;;;;;;9.52;5.47;;;;;;;4.48;57.52;101340.41;5015696;28;20052;-22
2021/03/30 04:00:21;;;;;;;12.65;6.65;;;;;;;4.52;56.46;101350.50;5016973;28;20032;-23
2021/03/30 04:02:52;;;;;;;12.02;5.70;;;;;;;4.45;57.51;101351.25;5050331;28;20041;-22
2021/03/30 04:05:22;;;;;;;12.85;6.80;;;;;;;4.05;58.58;101341.84;5016434;28;20033;-23
2021/03/30 04:07:57;;;;;;;18.85;8.68;;;;;;;4.15;58.53;101353.19;5031922;28;20025;-23
2021/03/30 04:10:23;;;;;;;50.33;17.27;;;;;;;4.20;58.12;101357.06;5032386;28;20029;-23
2021/03/30 04:12:49;;;;;;;49.45;16.90;;;;;;;4.29;57.47;101344.81;5049833;28;20029;-22
2021/03/30 04:15:16;;;;;;;50.88;15.40;;;;;;;4.53;57.22;101369.84;5049963;28;20040;-23
2021/03/30 04:17:42;;;;;;;46.63;13.63;;;;;;;4.38;57.02;101335.97;5049589;28;20087;-25
2021/03/30 04:20:10;;;;;;;107.05;39.20;;;;;;;4.62;56.83;101361.03;5032190;28;20025;-23
2021/03/30 04:22:36;;;;;;;70.45;30.02;;;;;;;4.61;57.06;101357.53;5049759;28;20072;-23
2021/03/30 04:25:02;;;;;;;33.90;13.82;;;;;;;4.07;57.47;101353.09;5049712;28;20036;-23
2021/03/30 04:27:30;;;;;;;37.88;13.75;;;;;;;4.14;57.67;101364.72;5050208;28;20040;-23
2021/03/30 04:29:56;;;;;;;43.40;23.85;;;;;;;4.08;58.15;101373.22;5049496;28;20029;-22
2021/03/30 04:32:21;;;;;;;29.48;15.35;;;;;;;4.17;57.42;101369.72;5049508;28;20039;-23
2021/03/30 04:34:47;;;;;;;27.35;12.23;;;;;;;3.44;60.76;101372.94;5049683;28;20409;-22
2021/03/30 04:37:12;;;;;;;20.00;8.95;;;;;;;3.95;59.63;101363.81;5049419;28;20396;-23
2021/03/30 04:39:38;;;;;;;15.35;8.48;;;;;;;4.28;59.32;101385.38;5049225;28;20413;-23
2021/03/30 04:42:04;;;;;;;18.30;9.75;;;;;;;4.43;58.16;101360.16;5049470;28;20405;-23
2021/03/30 04:44:29;;;;;;;23.25;16.52;;;;;;;4.08;59.44;101384.59;5031740;28;20525;-23
2021/03/30 04:46:55;;;;;;;23.80;14.48;;;;;;;4.25;59.42;101390.97;5049262;28;20124;-23
2021/03/30 04:49:20;;;;;;;28.58;14.75;;;;;;;3.80;60.22;101391.63;5049029;28;20091;-22
2021/03/30 04:51:46;;;;;;;27.48;17.13;;;;;;;4.50;58.43;101400.03;5048967;28;20463;-22
2021/03/30 04:54:11;;;;;;;39.95;20.33;;;;;;;4.33;59.04;101393.72;5049437;28;20033;-21
2021/03/30 04:56:37;;;;;;;32.83;18.30;;;;;;;4.48;58.89;101393.22;5048900;28;20517;-22
2021/03/30 04:59:03;;;;;;;18.65;11.30;;;;;;;4.67;58.09;101369.34;5049263;28;20057;-23
2021/03/30 05:01:29;;;;;;;16.27;7.72;;;;;;;5.21;57.18;101388.75;5048999;28;20059;-23
2021/03/30 05:03:54;;;;;;;16.58;7.53;;;;;;;4.81;58.16;101394.44;5048942;28;20032;-23
2021/03/30 05:06:20;;;;;;;27.25;16.23;;;;;;;4.00;61.17;101382.72;5049087;28;20033;-23
2021/03/30 05:08:46;;;;;;;18.05;11.38;;;;;;;4.00;61.50;101398.56;5048889;28;20036;-23
2021/03/30 05:11:11;;;;;;;34.45;15.35;;;;;;;4.12;61.02;101408.91;5049002;28;20025;-23
2021/03/30 05:13:37;;;;;;;22.90;12.18;;;;;;;5.01;58.18;101413.66;5048704;28;20132;-24
2021/03/30 05:16:03;;;;;;;18.98;11.50;;;;;;;4.98;58.67;101401.53;5048712;28;20025;-24
2021/03/30 05:18:28;;;;;;;11.52;7.10;;;;;;;5.47;55.90;101387.13;5030800;28;20098;-24
2021/03/30 05:20:54;;;;;;;11.45;7.03;;;;;;;5.81;55.08;101374.81;5048638;28;20064;-24
2021/03/30 05:23:19;;;;;;;15.13;7.65;;;;;;;6.22;54.18;101414.81;5048530;28;20078;-24
2021/03/30 05:25:45;;;;;;;16.08;8.15;;;;;;;6.56;52.79;101421.09;5048386;28;20033;-25
2021/03/30 05:28:10;;;;;;;21.70;14.68;;;;;;;5.79;55.20;101419.13;5048625;28;20060;-23
2021/03/30 05:30:36;;;;;;;26.63;15.48;;;;;;;6.38;55.12;101416.72;5048448;28;20032;-24
2021/03/30 05:33:02;;;;;;;22.63;9.85;;;;;;;7.16;52.62;101406.88;5048694;28;20111;-23
2021/03/30 05:35:27;;;;;;;10.95;6.75;;;;;;;6.77;53.24;101408.28;5048799;28;20025;-24
2021/03/30 05:37:53;;;;;;;17.58;8.95;;;;;;;7.25;51.75;101395.25;5047479;28;20756;-24
2021/03/30 05:40:19;;;;;;;14.20;7.25;;;;;;;6.92;53.45;101389.09;5048214;28;20037;-24
2021/03/30 05:42:45;;;;;;;13.02;7.38;;;;;;;7.04;52.24;101398.38;5048261;28;20040;-25
2021/03/30 05:45:12;;;;;;;14.15;9.05;;;;;;;7.55;53.08;101391.13;5048148;28;20037;-24
2021/03/30 05:47:38;;;;;;;24.48;14.25;;;;;;;7.64;51.86;101395.47;5029862;28;20091;-25
2021/03/30 05:50:10;;;;;;;15.43;9.52;;;;;;;7.63;50.54;101383.16;5047803;28;20044;-24
2021/03/30 05:53:03;;;;;;;17.98;10.30;;;;;;;7.88;50.65;101412.34;5047928;28;20086;-24
2021/03/30 05:55:30;;;;;;;12.00;7.22;;;;;;;8.09;49.68;101384.41;5034038;28;20036;-23
2021/03/30 05:57:57;;;;;;;12.70;7.95;;;;;;;8.51;47.87;101401.94;5047737;28;20502;-23
2021/03/30 06:00:27;;;;;;;19.15;8.93;;;;;;;8.36;49.69;101405.28;5047960;28;20061;-23
2021/03/30 06:02:54;;;;;;;23.52;11.13;;;;;;;8.09;51.73;101413.66;5048086;28;20111;-24
2021/03/30 06:05:20;;;;;;;14.85;8.80;;;;;;;8.00;52.55;101405.69;5029928;28;20052;-24
2021/03/30 06:07:45;;;;;;;13.35;7.05;;;;;;;8.24;52.42;101418.09;5029229;28;20485;-23
2021/03/30 06:10:16;;;;;;;11.85;7.22;;;;;;;8.04;53.63;101412.31;5047319;28;20033;-21
2021/03/30 06:12:42;;;;;;;13.20;8.88;;;;;;;8.75;51.99;101414.31;5047619;28;20028;-23
2021/03/30 06:15:08;;;;;;;10.77;7.65;;;;;;;8.97;49.85;101423.31;5047512;28;20041;-23
2021/03/30 06:17:43;;;;;;;11.95;6.82;;;;;;;9.22;49.10;101419.50;5047854;28;20111;-23
2021/03/30 06:20:10;;;;;;;10.98;7.43;;;;;;;9.17;48.45;101424.53;5047722;28;20040;-23
2021/03/30 06:22:46;;;;;;;15.95;9.10;;;;;;;9.67;49.62;101417.00;5047708;28;20105;-23
2021/03/30 06:25:12;;;;;;;18.15;11.10;;;;;;;9.48;49.25;101426.34;5047724;28;20037;-27
2021/03/30 06:27:37;;;;;;;13.95;9.02;;;;;;;9.61;47.79;101409.75;5047295;28;20162;-23
2021/03/30 06:30:04;;;;;;;15.80;7.35;;;;;;;10.09;47.92;101422.78;5047999;28;20100;-22
2021/03/30 06:32:30;;;;;;;11.25;7.22;;;;;;;10.17;48.08;101418.19;5047451;28;20024;-23
2021/03/30 06:35:10;;;;;;;16.52;10.98;;;;;;;10.32;46.11;101407.56;5029348;28;20033;-22
2021/03/30 06:37:40;;;;;;;15.68;9.60;;;;;;;10.47;46.86;101404.06;5030895;28;20125;-23
2021/03/30 06:40:34;;;;;;;20.48;12.52;;;;;;;10.80;46.60;101429.31;5047155;28;20057;-22
2021/03/30 06:44:24;;;;;;;15.30;9.27;;;;;;;10.84;46.50;101411.09;5047291;28;20025;-23
2021/03/30 06:46:04;;;;;;;9.52;6.50;;;;;;;10.58;46.87;101406.25;5032665;28;20123;-24
2021/03/30 06:48:30;;;;;;;9.68;6.22;;;;;;;11.01;45.27;101411.69;5029349;28;20061;-23
2021/03/30 06:50:55;;;;;;;18.30;9.57;;;;;;;11.36;44.11;101431.38;5029219;28;20112;-23
2021/03/30 06:53:21;;;;;;;7.85;5.43;;;;;;;11.23;43.12;101433.91;5029837;28;20041;-23
2021/03/30 06:55:52;;;;;;;8.63;5.38;;;;;;;11.33;41.01;101417.56;5029046;28;20037;-23
2021/03/30 06:58:18;;;;;;;11.02;6.35;;;;;;;11.50;41.31;101420.81;5047041;28;20033;-23
2021/03/30 07:00:45;;;;;;;10.00;4.68;;;;;;;11.54;39.62;101420.22;5047150;28;20094;-23
2021/03/30 07:03:12;;;;;;;10.23;5.68;;;;;;;11.49;39.16;101408.47;5047001;28;20039;-23
2021/03/30 07:05:42;;;;;;;9.13;4.90;;;;;;;11.84;38.65;101434.25;5046948;28;20854;-22
2021/03/30 07:08:08;;;;;;;6.63;4.07;;;;;;;11.91;38.16;101410.31;5046539;28;20060;-22
2021/03/30 07:10:36;;;;;;;11.18;5.45;;;;;;;12.55;38.12;101419.13;5046804;28;20051;-23
2021/03/30 07:13:01;;;;;;;10.20;4.72;;;;;;;12.61;36.50;101429.84;5047040;28;20114;-23
2021/03/30 07:15:27;;;;;;;12.38;5.00;;;;;;;12.74;37.52;101421.03;5046922;28;20114;-23
2021/03/30 07:18:14;;;;;;;10.75;5.00;;;;;;;12.81;36.76;101443.31;5046468;28;20476;-23
2021/03/30 07:20:43;;;;;;;8.48;4.85;;;;;;;13.14;37.73;101442.59;5049272;28;20439;-23
2021/03/30 07:23:11;;;;;;;9.40;5.30;;;;;;;13.10;37.29;101422.59;5050816;28;20033;-22
2021/03/30 07:25:41;;;;;;;10.67;6.10;;;;;;;13.52;35.47;101446.63;5032852;28;20029;-23
2021/03/30 07:28:10;;;;;;;9.98;5.10;;;;;;;13.34;35.37;101439.16;5033171;28;20025;-23
2021/03/30 07:30:37;;;;;;;10.95;5.22;;;;;;;13.57;35.18;101418.16;5050852;28;20071;-23
2021/03/30 07:33:32;;;;;;;7.57;5.25;;;;;;;13.71;35.30;101445.81;5050734;28;20033;-23
2021/03/30 07:35:57;;;;;;;8.82;5.32;;;;;;;14.01;34.67;101429.28;5012788;28;20060;-23
2021/03/30 07:38:30;;;;;;;13.45;6.15;;;;;;;14.13;36.53;101448.25;5032695;28;20029;-22
2021/03/30 07:40:56;;;;;;;12.40;7.28;;;;;;;14.50;34.85;101445.91;5050640;28;20029;-23
2021/03/30 07:43:26;;;;;;;13.07;7.25;;;;;;;14.55;33.14;101424.66;5050628;28;20029;-23
2021/03/30 07:45:53;;;;;;;14.40;7.47;;;;;;;14.71;31.67;101445.69;5032410;28;20075;-23
2021/03/30 07:48:19;;;;;;;16.10;8.05;;;;;;;14.42;33.44;101445.09;5015965;28;20062;-23
2021/03/30 07:51:00;;;;;;;11.68;6.55;;;;;;;14.39;31.91;101421.38;5032427;28;20687;-23
2021/03/30 07:53:54;;;;;;;10.07;5.15;;;;;;;14.26;33.28;101451.75;5034358;28;20025;-21
2021/03/30 07:56:25;;;;;;;10.15;5.47;;;;;;;14.64;32.40;101450.22;5047264;28;20041;-23
2021/03/30 07:58:52;;;;;;;8.38;4.78;;;;;;;14.71;33.11;101413.47;5050176;28;20033;-22
2021/03/30 08:01:19;;;;;;;8.88;4.90;;;;;;;14.89;31.14;101431.53;5050200;28;20040;-22
2021/03/30 08:03:45;;;;;;;12.93;5.70;;;;;;;14.96;31.69;101432.34;5049770;28;20128;-23
2021/03/30 08:06:21;;;;;;;15.07;7.35;;;;;;;14.93;32.59;101438.13;5050126;28;20414;-23
2021/03/30 08:08:54;;;;;;;11.48;6.10;;;;;;;14.92;30.35;101408.81;5050088;28;20084;-22
2021/03/30 08:11:43;;;;;;;13.30;5.20;;;;;;;14.83;31.25;101425.19;5050138;28;20029;-22
2021/03/30 08:14:18;;;;;;;8.68;4.57;;;;;;;14.47;31.47;101406.91;5049937;28;20224;-23
2021/03/30 08:16:45;;;;;;;8.07;4.22;;;;;;;15.10;30.99;101426.88;5049717;28;20029;-22
2021/03/30 08:19:12;;;;;;;7.82;4.60;;;;;;;15.22;31.34;101420.63;5032227;28;20033;-23
2021/03/30 08:22:13;;;;;;;8.43;5.68;;;;;;;15.31;30.34;101415.00;5049606;28;20465;-22
2021/03/30 08:24:44;;;;;;;8.48;4.40;;;;;;;15.00;32.48;101413.94;4952524;28;20053;-23
2021/03/30 08:27:31;;;;;;;7.65;4.10;;;;;;;15.09;32.96;101401.88;5035614;28;20041;-23
2021/03/30 08:29:59;;;;;;;7.73;4.60;;;;;;;15.06;32.37;101391.59;5049963;28;20025;-23
2021/03/30 08:32:30;;;;;;;6.88;4.55;;;;;;;15.05;31.95;101393.41;5048680;28;20033;-23
2021/03/30 08:34:55;;;;;;;8.68;5.35;;;;;;;15.22;34.18;101409.88;5032121;28;20059;-23
2021/03/30 08:37:22;;;;;;;8.57;4.65;;;;;;;15.44;34.66;101404.13;5049513;28;20064;-22
2021/03/30 08:39:48;;;;;;;19.92;5.25;;;;;;;16.01;34.31;101406.78;5049194;28;20056;-23
2021/03/30 08:42:15;;;;;;;12.43;5.50;;;;;;;16.05;32.86;101411.47;5031562;28;20068;-23
2021/03/30 08:44:56;;;;;;;7.50;4.20;;;;;;;15.83;33.43;101410.25;5049521;28;20555;-23
2021/03/30 08:47:28;;;;;;;7.40;4.90;;;;;;;15.94;32.10;101409.53;5049004;28;20056;-22
2021/03/30 08:50:19;;;;;;;9.23;4.97;;;;;;;15.73;30.66;101401.84;5048973;28;20057;-22
2021/03/30 08:52:45;;;;;;;8.85;4.82;;;;;;;15.97;33.20;101403.69;5031103;28;20090;-23
2021/03/30 08:55:12;;;;;;;8.13;4.32;;;;;;;16.06;31.41;101380.03;5049189;28;20036;-23
2021/03/30 08:57:38;;;;;;;6.97;4.40;;;;;;;16.14;31.96;101384.28;5031206;28;20060;-22
2021/03/30 09:00:06;;;;;;;9.35;4.10;;;;;;;16.53;29.37;101374.94;5031111;28;20310;-22
2021/03/30 09:02:31;;;;;;;8.77;4.95;;;;;;;16.74;29.92;101394.34;5048851;28;20532;-22
2021/03/30 09:04:57;;;;;;;8.50;4.63;;;;;;;16.75;27.95;101391.41;5049019;28;20128;-22
2021/03/30 09:07:23;;;;;;;6.47;3.63;;;;;;;16.47;30.02;101384.75;5014490;28;20147;-23
2021/03/30 09:09:48;;;;;;;7.70;4.53;;;;;;;16.42;30.19;101381.06;5048699;28;20550;-22
2021/03/30 09:12:17;;;;;;;8.60;4.43;;;;;;;16.20;30.45;101386.06;5048837;28;20036;-25
2021/03/30 09:14:46;;;;;;;7.60;4.03;;;;;;;16.13;31.41;101382.66;5048816;28;20163;-25
2021/03/30 09:17:15;;;;;;;7.30;4.22;;;;;;;16.57;29.40;101377.97;5048653;28;20449;-24
2021/03/30 09:19:48;;;;;;;8.93;4.28;;;;;;;16.90;28.45;101387.53;5048434;28;20496;-22
2021/03/30 09:22:39;;;;;;;7.95;4.22;;;;;;;17.20;30.25;101384.81;5048490;28;20036;-22
2021/03/30 09:27:50;;;;;;;9.57;3.85;;;;;;;17.09;27.76;101367.56;5030240;28;20047;-22
2021/03/30 09:30:17;;;;;;;11.23;4.13;;;;;;;16.31;32.18;101389.91;5028485;28;20033;-23
2021/03/30 09:32:44;;;;;;;7.87;3.60;;;;;;;15.91;31.16;101377.69;5042301;28;20436;-22
2021/03/30 09:35:17;;;;;;;6.90;4.00;;;;;;;16.10;33.54;101372.31;5030585;28;20051;-23
2021/03/30 09:37:48;;;;;;;6.20;3.88;;;;;;;16.25;30.07;101370.09;5048283;28;20032;-22
2021/03/30 09:40:19;;;;;;;7.65;3.80;;;;;;;16.73;29.63;101371.97;5048364;28;20488;-23
2021/03/30 09:42:45;;;;;;;7.50;3.35;;;;;;;16.62;30.36;101364.66;5048066;28;20105;-23
2021/03/30 09:45:12;;;;;;;8.50;3.40;;;;;;;16.62;30.72;101370.88;5048937;28;20166;-22
2021/03/30 09:47:38;;;;;;;6.80;3.80;;;;;;;17.10;31.25;101353.06;5048624;28;20080;-23
2021/03/30 09:50:04;;;;;;;7.57;3.40;;;;;;;17.42;27.02;101366.22;5031266;28;20053;-23
2021/03/30 09:52:31;;;;;;;7.20;3.22;;;;;;;17.78;26.56;101361.69;5031547;28;20167;-22
2021/03/30 09:54:57;;;;;;;5.57;3.17;;;;;;;18.48;25.48;101339.16;5015227;28;20076;-22
2021/03/30 09:57:26;;;;;;;7.85;3.50;;;;;;;19.09;25.97;101344.88;5049563;28;20079;-22
2021/03/30 09:59:52;;;;;;;20.67;13.65;;;;;;;19.45;25.00;101351.72;5048641;28;20109;-23
2021/03/30 10:02:19;;;;;;;9.77;4.30;;;;;;;19.09;28.35;101347.59;5014796;28;20039;-23
2021/03/30 10:04:44;;;;;;;6.10;3.55;;;;;;;18.59;26.65;101353.66;5048979;28;20075;-23
2021/03/30 10:07:17;;;;;;;5.97;3.25;;;;;;;17.56;27.41;101350.66;5048864;28;20461;-22
2021/03/30 10:10:15;;;;;;;10.68;4.38;;;;;;;17.80;27.36;101332.59;5048069;28;20132;-23
2021/03/30 10:12:46;;;;;;;7.68;4.72;;;;;;;17.88;27.78;101348.44;5048779;28;20058;-23
2021/03/30 10:15:12;;;;;;;9.85;4.30;;;;;;;17.83;26.17;101348.31;5049105;28;20115;-22
2021/03/30 10:17:38;;;;;;;7.88;4.47;;;;;;;17.40;25.45;101339.47;5048369;28;20080;-22
2021/03/30 10:20:04;;;;;;;19.00;6.13;;;;;;;17.84;25.70;101341.88;5048806;28;20571;-22
2021/03/30 10:22:35;;;;;;;10.02;4.82;;;;;;;18.23;25.00;101329.47;5048686;28;20059;-23
2021/03/30 10:25:20;;;;;;;10.00;4.93;;;;;;;18.98;23.49;101329.53;5048550;28;20119;-21
2021/03/30 10:27:52;;;;;;;9.00;5.30;;;;;;;19.08;23.74;101327.00;5052080;28;20113;-22
2021/03/30 10:30:27;;;;;;;8.43;5.15;;;;;;;19.76;25.69;101321.59;5034526;28;20033;-23
2021/03/30 10:32:56;;;;;;;10.30;4.82;;;;;;;20.36;23.21;101325.34;5035822;28;20029;-22
2021/03/30 10:35:21;;;;;;;;;;;;;;;20.18;22.00;101323.75;5052692;28;20105;-22
2021/03/30 10:37:47;;;;;;;8.65;5.07;;;;;;;20.28;23.60;101310.34;5047455;28;19999;-22
2021/03/30 10:40:12;;;;;;;11.27;6.40;;;;;;;19.93;24.75;101325.06;5047055;28;20122;-23
2021/03/30 10:42:39;;;;;;;13.70;6.40;;;;;;;20.11;22.23;101323.16;5048776;28;20039;-22
2021/03/30 10:45:07;;;;;;;10.38;6.18;;;;;;;20.17;24.19;101316.72;5048708;28;20052;-23
2021/03/30 10:47:34;;;;;;;7.53;4.90;;;;;;;20.35;22.86;101297.44;5030423;28;20032;-22
2021/03/30 10:50:00;;;;;;;12.68;5.20;;;;;;;20.42;22.38;101308.06;5048086;28;20057;-22
2021/03/30 10:52:33;;;;;;;7.97;4.95;;;;;;;20.15;22.51;101303.44;5048024;28;20035;-24
2021/03/30 10:55:00;;;;;;;8.25;5.03;;;;;;;19.90;22.44;101316.63;5047578;28;20025;-23
2021/03/30 10:57:30;;;;;;;7.75;4.80;;;;;;;20.66;21.74;101311.34;5048097;28;20033;-23
2021/03/30 10:59:55;;;;;;;13.05;7.43;;;;;;;21.29;21.48;101300.75;5047826;28;20043;-23
2021/03/30 11:02:21;;;;;;;14.55;9.90;;;;;;;21.87;21.43;101289.97;5046149;28;20107;-23
2021/03/30 11:04:47;;;;;;;9.80;5.00;;;;;;;21.92;21.30;101300.03;5047710;28;20021;-23
2021/03/30 11:07:12;;;;;;;9.20;4.78;;;;;;;21.35;19.94;101279.88;5047898;28;20028;-23
2021/03/30 11:09:38;;;;;;;11.02;4.90;;;;;;;21.61;21.09;101276.28;5029778;28;20025;-23
2021/03/30 11:12:05;;;;;;;11.60;5.40;;;;;;;21.30;21.19;101283.38;5047642;28;20025;-23
2021/03/30 11:14:30;;;;;;;11.95;4.68;;;;;;;21.09;20.87;101289.75;5046550;28;20029;-22
2021/03/30 11:16:56;;;;;;;8.25;5.05;;;;;;;20.99;21.10;101266.06;5047526;28;20119;-21
2021/03/30 11:19:21;;;;;;;8.98;5.18;;;;;;;21.37;21.31;101272.28;5046921;28;20131;-25
2021/03/30 11:21:49;;;;;;;8.18;4.30;;;;;;;21.95;21.11;101275.91;5047113;28;20025;-22
2021/03/30 11:24:22;;;;;;;6.45;4.68;;;;;;;22.68;21.34;101266.88;5046711;28;20032;-22
2021/03/30 11:26:50;;;;;;;8.23;4.63;;;;;;;22.74;19.48;101260.34;5046683;28;20404;-22
2021/03/30 11:29:53;;;;;;;8.55;4.97;;;;;;;22.08;20.54;101240.06;5046720;28;20029;-22
2021/03/30 11:34:48;;;;;;;8.05;4.95;;;;;;;19.74;22.73;101258.78;5046537;28;20060;-22
2021/03/30 11:37:35;;;;;;;9.45;5.22;;;;;;;19.57;23.16;101256.88;5028835;28;20025;-22